Terminal Aerodrome Forecast
Issued by NWS

Home | Current Version | Previous Version | Text Only | Print | Product List | Glossary On
Versions: 1 2 3 4 5 6 7 8 9 10 11 12
000
FTUS43 KJKL 172300
TAFSME
TAF
KSME 172336Z 1800/1824 VRB03KT P6SM FEW040 SCT250
     FM180500 00000KT 4SM BR BKN090
     FM180900 00000KT 1/2SM FG BKN005 BKN090
     FM181400 VRB04KT P6SM SCT025 BKN050
      AMD NOT SKED=

USA.gov is the U.S. government's official web portal to all federal, state and local government web resources and services.